sensor_id;sensor_type;location;lat;lon;timestamp;temperature;humidity
52869;DHT22;39100;53.480;6.158;2022-08-19T00:01:21;16.00;99.90
52869;DHT22;39100;53.480;6.158;2022-08-19T00:03:47;16.00;99.90
52869;DHT22;39100;53.480;6.158;2022-08-19T00:06:13;16.10;99.90
52869;DHT22;39100;53.480;6.158;2022-08-19T00:08:39;16.10;99.90
52869;DHT22;39100;53.480;6.158;2022-08-19T00:11:05;16.10;99.90
52869;DHT22;39100;53.480;6.158;2022-08-19T00:13:32;16.20;99.90
52869;DHT22;39100;53.480;6.158;2022-08-19T00:15:57;16.30;99.90
52869;DHT22;39100;53.480;6.158;2022-08-19T00:18:24;16.30;99.90
52869;DHT22;39100;53.480;6.158;2022-08-19T00:20:49;16.30;99.90
52869;DHT22;39100;53.480;6.158;2022-08-19T00:23:15;16.40;99.90
52869;DHT22;39100;53.480;6.158;2022-08-19T00:25:41;16.40;99.90
52869;DHT22;39100;53.480;6.158;2022-08-19T00:28:07;16.40;99.90
52869;DHT22;39100;53.480;6.158;2022-08-19T00:30:32;16.50;99.90
52869;DHT22;39100;53.480;6.158;2022-08-19T00:32:58;16.50;99.90
52869;DHT22;39100;53.480;6.158;2022-08-19T00:35:24;16.60;99.90
52869;DHT22;39100;53.480;6.158;2022-08-19T00:37:52;16.60;99.90
52869;DHT22;39100;53.480;6.158;2022-08-19T00:40:19;16.60;99.90
52869;DHT22;39100;53.480;6.158;2022-08-19T00:42:45;16.70;99.90
52869;DHT22;39100;53.480;6.158;2022-08-19T00:45:15;16.70;99.90
52869;DHT22;39100;53.480;6.158;2022-08-19T00:47:43;16.70;99.90
52869;DHT22;39100;53.480;6.158;2022-08-19T00:50:10;16.70;99.90
52869;DHT22;39100;53.480;6.158;2022-08-19T00:52:39;16.70;99.90
52869;DHT22;39100;53.480;6.158;2022-08-19T00:55:12;16.70;99.90
52869;DHT22;39100;53.480;6.158;2022-08-19T00:57:42;16.60;99.90
52869;DHT22;39100;53.480;6.158;2022-08-19T01:00:13;16.70;99.90
52869;DHT22;39100;53.480;6.158;2022-08-19T01:02:40;16.60;99.90
52869;DHT22;39100;53.480;6.158;2022-08-19T01:05:09;16.70;99.90
52869;DHT22;39100;53.480;6.158;2022-08-19T01:07:37;16.70;99.90
52869;DHT22;39100;53.480;6.158;2022-08-19T01:10:07;16.70;99.90
52869;DHT22;39100;53.480;6.158;2022-08-19T01:12:34;16.70;99.90
52869;DHT22;39100;53.480;6.158;2022-08-19T01:15:00;16.70;99.90
52869;DHT22;39100;53.480;6.158;2022-08-19T01:17:26;16.70;99.90
52869;DHT22;39100;53.480;6.158;2022-08-19T01:19:52;16.70;99.90
52869;DHT22;39100;53.480;6.158;2022-08-19T01:24:50;16.70;99.90
52869;DHT22;39100;53.480;6.158;2022-08-19T01:27:17;16.60;99.90
52869;DHT22;39100;53.480;6.158;2022-08-19T01:29:44;16.60;99.90
52869;DHT22;39100;53.480;6.158;2022-08-19T01:32:12;16.60;99.90
52869;DHT22;39100;53.480;6.158;2022-08-19T01:34:39;16.60;99.90
52869;DHT22;39100;53.480;6.158;2022-08-19T01:37:09;16.60;99.90
52869;DHT22;39100;53.480;6.158;2022-08-19T01:39:38;16.60;99.90
52869;DHT22;39100;53.480;6.158;2022-08-19T01:42:06;16.60;99.90
52869;DHT22;39100;53.480;6.158;2022-08-19T01:44:34;16.60;99.90
52869;DHT22;39100;53.480;6.158;2022-08-19T01:47:01;16.60;99.90
52869;DHT22;39100;53.480;6.158;2022-08-19T01:49:29;16.70;99.90
52869;DHT22;39100;53.480;6.158;2022-08-19T01:51:55;16.60;99.90
52869;DHT22;39100;53.480;6.158;2022-08-19T01:54:22;16.60;99.90
52869;DHT22;39100;53.480;6.158;2022-08-19T01:56:51;16.60;99.90
52869;DHT22;39100;53.480;6.158;2022-08-19T01:59:19;16.60;99.90
52869;DHT22;39100;53.480;6.158;2022-08-19T02:01:46;16.60;99.90
52869;DHT22;39100;53.480;6.158;2022-08-19T02:04:12;17.30;99.90
52869;DHT22;39100;53.480;6.158;2022-08-19T02:06:38;16.60;99.90
52869;DHT22;39100;53.480;6.158;2022-08-19T02:09:05;16.60;99.90
52869;DHT22;39100;53.480;6.158;2022-08-19T02:11:33;16.60;99.90
52869;DHT22;39100;53.480;6.158;2022-08-19T02:14:01;16.50;99.90
52869;DHT22;39100;53.480;6.158;2022-08-19T02:16:29;16.50;99.90
52869;DHT22;39100;53.480;6.158;2022-08-19T02:18:56;16.50;99.90
52869;DHT22;39100;53.480;6.158;2022-08-19T02:21:23;16.50;99.90
52869;DHT22;39100;53.480;6.158;2022-08-19T02:23:50;16.50;99.90
52869;DHT22;39100;53.480;6.158;2022-08-19T02:26:16;16.50;99.90
52869;DHT22;39100;53.480;6.158;2022-08-19T02:28:42;16.50;99.90
52869;DHT22;39100;53.480;6.158;2022-08-19T02:31:13;16.50;99.90
52869;DHT22;39100;53.480;6.158;2022-08-19T02:33:43;16.50;99.90
52869;DHT22;39100;53.480;6.158;2022-08-19T02:36:10;16.50;99.90
52869;DHT22;39100;53.480;6.158;2022-08-19T02:38:36;16.50;99.90
52869;DHT22;39100;53.480;6.158;2022-08-19T02:41:11;16.50;99.90
52869;DHT22;39100;53.480;6.158;2022-08-19T02:43:38;16.50;99.90
52869;DHT22;39100;53.480;6.158;2022-08-19T02:46:23;16.50;99.90
52869;DHT22;39100;53.480;6.158;2022-08-19T02:48:53;16.50;99.90
52869;DHT22;39100;53.480;6.158;2022-08-19T02:51:25;16.50;99.90
52869;DHT22;39100;53.480;6.158;2022-08-19T02:53:52;16.50;99.90
52869;DHT22;39100;53.480;6.158;2022-08-19T02:56:18;16.50;99.90
52869;DHT22;39100;53.480;6.158;2022-08-19T02:58:44;16.50;99.90
52869;DHT22;39100;53.480;6.158;2022-08-19T03:01:11;16.50;99.90
52869;DHT22;39100;53.480;6.158;2022-08-19T03:03:44;16.60;99.90
52869;DHT22;39100;53.480;6.158;2022-08-19T03:06:12;16.60;99.90
52869;DHT22;39100;53.480;6.158;2022-08-19T03:08:40;16.60;99.90
52869;DHT22;39100;53.480;6.158;2022-08-19T03:11:23;16.60;99.90
52869;DHT22;39100;53.480;6.158;2022-08-19T03:13:49;16.50;99.90
52869;DHT22;39100;53.480;6.158;2022-08-19T03:16:17;16.60;99.90
52869;DHT22;39100;53.480;6.158;2022-08-19T03:18:43;16.50;99.90
52869;DHT22;39100;53.480;6.158;2022-08-19T03:21:09;16.50;99.90
52869;DHT22;39100;53.480;6.158;2022-08-19T03:23:39;16.50;99.90
52869;DHT22;39100;53.480;6.158;2022-08-19T03:26:06;16.50;99.90
52869;DHT22;39100;53.480;6.158;2022-08-19T03:28:32;16.50;99.90
52869;DHT22;39100;53.480;6.158;2022-08-19T03:31:12;16.40;99.90
52869;DHT22;39100;53.480;6.158;2022-08-19T03:33:38;16.50;99.90
52869;DHT22;39100;53.480;6.158;2022-08-19T03:36:05;16.40;99.90
52869;DHT22;39100;53.480;6.158;2022-08-19T03:38:32;16.40;99.90
52869;DHT22;39100;53.480;6.158;2022-08-19T03:41:02;16.40;99.90
52869;DHT22;39100;53.480;6.158;2022-08-19T03:43:28;16.40;99.90
52869;DHT22;39100;53.480;6.158;2022-08-19T03:46:02;16.40;99.90
52869;DHT22;39100;53.480;6.158;2022-08-19T03:48:29;16.40;99.90
52869;DHT22;39100;53.480;6.158;2022-08-19T03:50:56;16.40;99.90
52869;DHT22;39100;53.480;6.158;2022-08-19T03:53:21;16.40;99.90
52869;DHT22;39100;53.480;6.158;2022-08-19T03:55:47;16.40;99.90
52869;DHT22;39100;53.480;6.158;2022-08-19T03:58:12;16.30;99.90
52869;DHT22;39100;53.480;6.158;2022-08-19T04:00:42;16.30;99.90
52869;DHT22;39100;53.480;6.158;2022-08-19T04:03:08;16.40;99.90
52869;DHT22;39100;53.480;6.158;2022-08-19T04:05:33;16.40;99.90
52869;DHT22;39100;53.480;6.158;2022-08-19T04:07:59;16.30;99.90
52869;DHT22;39100;53.480;6.158;2022-08-19T04:10:26;16.30;99.90
52869;DHT22;39100;53.480;6.158;2022-08-19T04:12:52;16.30;99.90
52869;DHT22;39100;53.480;6.158;2022-08-19T04:15:18;16.30;99.90
52869;DHT22;39100;53.480;6.158;2022-08-19T04:17:44;16.30;99.90
52869;DHT22;39100;53.480;6.158;2022-08-19T04:20:10;16.30;99.90
52869;DHT22;39100;53.480;6.158;2022-08-19T04:22:35;16.20;99.90
52869;DHT22;39100;53.480;6.158;2022-08-19T04:25:01;16.20;99.90
52869;DHT22;39100;53.480;6.158;2022-08-19T04:27:26;16.20;99.90
52869;DHT22;39100;53.480;6.158;2022-08-19T04:29:52;16.20;99.90
52869;DHT22;39100;53.480;6.158;2022-08-19T04:32:20;16.20;99.90
52869;DHT22;39100;53.480;6.158;2022-08-19T04:34:46;16.20;99.90
52869;DHT22;39100;53.480;6.158;2022-08-19T04:37:11;16.10;99.90
52869;DHT22;39100;53.480;6.158;2022-08-19T04:39:38;16.10;99.90
52869;DHT22;39100;53.480;6.158;2022-08-19T04:42:22;16.20;99.90
52869;DHT22;39100;53.480;6.158;2022-08-19T04:45:11;16.20;99.90
52869;DHT22;39100;53.480;6.158;2022-08-19T04:47:38;16.20;99.90
52869;DHT22;39100;53.480;6.158;2022-08-19T04:50:05;16.20;99.90
52869;DHT22;39100;53.480;6.158;2022-08-19T04:52:31;16.30;99.90
52869;DHT22;39100;53.480;6.158;2022-08-19T04:54:58;16.30;99.90
52869;DHT22;39100;53.480;6.158;2022-08-19T04:57:24;16.40;99.90
52869;DHT22;39100;53.480;6.158;2022-08-19T04:59:54;16.40;99.90
52869;DHT22;39100;53.480;6.158;2022-08-19T05:02:20;16.50;99.90
52869;DHT22;39100;53.480;6.158;2022-08-19T05:04:45;16.60;99.90
52869;DHT22;39100;53.480;6.158;2022-08-19T05:07:11;16.70;99.90
52869;DHT22;39100;53.480;6.158;2022-08-19T05:09:37;16.70;99.90
52869;DHT22;39100;53.480;6.158;2022-08-19T05:12:02;16.80;99.90
52869;DHT22;39100;53.480;6.158;2022-08-19T05:14:28;16.90;99.90
52869;DHT22;39100;53.480;6.158;2022-08-19T05:16:54;17.00;99.90
52869;DHT22;39100;53.480;6.158;2022-08-19T05:19:20;17.00;99.90
52869;DHT22;39100;53.480;6.158;2022-08-19T05:22:04;17.20;99.90
52869;DHT22;39100;53.480;6.158;2022-08-19T05:24:48;17.20;99.90
52869;DHT22;39100;53.480;6.158;2022-08-19T05:27:14;17.40;99.90
52869;DHT22;39100;53.480;6.158;2022-08-19T05:29:39;17.50;99.90
52869;DHT22;39100;53.480;6.158;2022-08-19T05:32:06;17.60;99.90
52869;DHT22;39100;53.480;6.158;2022-08-19T05:34:36;17.70;99.90
52869;DHT22;39100;53.480;6.158;2022-08-19T05:37:04;17.70;99.90
52869;DHT22;39100;53.480;6.158;2022-08-19T05:39:32;17.80;99.90
52869;DHT22;39100;53.480;6.158;2022-08-19T05:42:06;17.80;99.90
52869;DHT22;39100;53.480;6.158;2022-08-19T05:44:34;17.70;99.90
52869;DHT22;39100;53.480;6.158;2022-08-19T05:47:02;17.70;99.90
52869;DHT22;39100;53.480;6.158;2022-08-19T05:49:28;17.60;99.90
52869;DHT22;39100;53.480;6.158;2022-08-19T05:51:54;17.50;99.90
52869;DHT22;39100;53.480;6.158;2022-08-19T05:54:21;17.50;99.90
52869;DHT22;39100;53.480;6.158;2022-08-19T05:56:49;17.50;99.90
52869;DHT22;39100;53.480;6.158;2022-08-19T05:59:16;17.60;99.90
52869;DHT22;39100;53.480;6.158;2022-08-19T06:01:44;17.70;99.90
52869;DHT22;39100;53.480;6.158;2022-08-19T06:04:12;17.70;99.90
52869;DHT22;39100;53.480;6.158;2022-08-19T06:06:39;17.80;99.90
52869;DHT22;39100;53.480;6.158;2022-08-19T06:09:06;18.00;99.90
52869;DHT22;39100;53.480;6.158;2022-08-19T06:11:43;18.20;99.90
52869;DHT22;39100;53.480;6.158;2022-08-19T06:14:13;18.30;99.90
52869;DHT22;39100;53.480;6.158;2022-08-19T06:16:40;18.50;99.90
52869;DHT22;39100;53.480;6.158;2022-08-19T06:19:10;18.60;99.90
52869;DHT22;39100;53.480;6.158;2022-08-19T06:21:38;18.80;99.90
52869;DHT22;39100;53.480;6.158;2022-08-19T06:24:08;19.00;99.90
52869;DHT22;39100;53.480;6.158;2022-08-19T06:26:36;19.10;99.90
52869;DHT22;39100;53.480;6.158;2022-08-19T06:29:05;19.20;99.90
52869;DHT22;39100;53.480;6.158;2022-08-19T06:31:32;19.30;99.90
52869;DHT22;39100;53.480;6.158;2022-08-19T06:34:00;19.50;99.90
52869;DHT22;39100;53.480;6.158;2022-08-19T06:36:36;19.50;99.90
52869;DHT22;39100;53.480;6.158;2022-08-19T06:39:04;19.70;99.90
52869;DHT22;39100;53.480;6.158;2022-08-19T06:41:31;19.80;99.90
52869;DHT22;39100;53.480;6.158;2022-08-19T06:43:59;19.90;99.90
52869;DHT22;39100;53.480;6.158;2022-08-19T06:46:25;20.00;99.90
52869;DHT22;39100;53.480;6.158;2022-08-19T06:48:51;20.10;99.90
52869;DHT22;39100;53.480;6.158;2022-08-19T06:51:19;20.20;99.90
52869;DHT22;39100;53.480;6.158;2022-08-19T06:53:49;20.30;99.90
52869;DHT22;39100;53.480;6.158;2022-08-19T06:56:18;20.40;99.90
52869;DHT22;39100;53.480;6.158;2022-08-19T06:58:44;20.50;99.90
52869;DHT22;39100;53.480;6.158;2022-08-19T07:01:11;20.60;99.90
52869;DHT22;39100;53.480;6.158;2022-08-19T07:03:37;20.80;99.90
52869;DHT22;39100;53.480;6.158;2022-08-19T07:06:09;21.00;99.90
52869;DHT22;39100;53.480;6.158;2022-08-19T07:08:37;21.10;99.90
52869;DHT22;39100;53.480;6.158;2022-08-19T07:11:10;21.20;99.90
52869;DHT22;39100;53.480;6.158;2022-08-19T07:13:36;21.30;99.90
52869;DHT22;39100;53.480;6.158;2022-08-19T07:16:07;21.50;99.90
52869;DHT22;39100;53.480;6.158;2022-08-19T07:18:33;21.70;99.90
52869;DHT22;39100;53.480;6.158;2022-08-19T07:21:12;21.80;99.90
52869;DHT22;39100;53.480;6.158;2022-08-19T07:23:37;21.70;99.90
52869;DHT22;39100;53.480;6.158;2022-08-19T07:26:08;21.80;99.90
52869;DHT22;39100;53.480;6.158;2022-08-19T07:28:34;21.80;99.90
52869;DHT22;39100;53.480;6.158;2022-08-19T07:31:00;21.90;99.90
52869;DHT22;39100;53.480;6.158;2022-08-19T07:33:27;21.90;99.90
52869;DHT22;39100;53.480;6.158;2022-08-19T07:35:53;21.90;99.90
52869;DHT22;39100;53.480;6.158;2022-08-19T07:38:18;22.00;99.90
52869;DHT22;39100;53.480;6.158;2022-08-19T07:40:44;22.20;99.90
52869;DHT22;39100;53.480;6.158;2022-08-19T07:43:11;22.20;99.90
52869;DHT22;39100;53.480;6.158;2022-08-19T07:45:37;22.30;99.90
52869;DHT22;39100;53.480;6.158;2022-08-19T07:48:03;22.60;99.90
52869;DHT22;39100;53.480;6.158;2022-08-19T07:50:29;22.60;99.90
52869;DHT22;39100;53.480;6.158;2022-08-19T07:52:54;22.70;99.90
52869;DHT22;39100;53.480;6.158;2022-08-19T07:55:24;23.00;99.90
52869;DHT22;39100;53.480;6.158;2022-08-19T07:57:50;23.30;99.90
52869;DHT22;39100;53.480;6.158;2022-08-19T08:00:17;23.50;99.90
52869;DHT22;39100;53.480;6.158;2022-08-19T08:02:43;23.70;99.90
52869;DHT22;39100;53.480;6.158;2022-08-19T08:05:10;24.00;99.90
52869;DHT22;39100;53.480;6.158;2022-08-19T08:07:54;24.20;99.90
52869;DHT22;39100;53.480;6.158;2022-08-19T08:10:38;24.30;99.90
52869;DHT22;39100;53.480;6.158;2022-08-19T08:13:04;24.40;99.90
52869;DHT22;39100;53.480;6.158;2022-08-19T08:15:31;24.60;99.90
52869;DHT22;39100;53.480;6.158;2022-08-19T08:17:56;24.60;99.90
52869;DHT22;39100;53.480;6.158;2022-08-19T08:20:23;24.80;99.90
52869;DHT22;39100;53.480;6.158;2022-08-19T08:22:49;24.90;99.90
52869;DHT22;39100;53.480;6.158;2022-08-19T08:25:35;24.80;99.90
52869;DHT22;39100;53.480;6.158;2022-08-19T08:28:02;24.70;99.90
52869;DHT22;39100;53.480;6.158;2022-08-19T08:30:29;24.50;99.90
52869;DHT22;39100;53.480;6.158;2022-08-19T08:32:54;24.40;99.90
52869;DHT22;39100;53.480;6.158;2022-08-19T08:35:23;24.60;99.90
52869;DHT22;39100;53.480;6.158;2022-08-19T08:37:51;24.90;99.90
52869;DHT22;39100;53.480;6.158;2022-08-19T08:40:23;25.00;99.90
52869;DHT22;39100;53.480;6.158;2022-08-19T08:43:06;25.10;99.90
52869;DHT22;39100;53.480;6.158;2022-08-19T08:45:35;25.40;99.90
52869;DHT22;39100;53.480;6.158;2022-08-19T08:48:18;25.60;99.90
52869;DHT22;39100;53.480;6.158;2022-08-19T08:50:47;25.80;99.90
52869;DHT22;39100;53.480;6.158;2022-08-19T08:53:17;26.00;99.90
52869;DHT22;39100;53.480;6.158;2022-08-19T08:55:44;26.20;99.90
52869;DHT22;39100;53.480;6.158;2022-08-19T08:58:15;26.40;99.90
52869;DHT22;39100;53.480;6.158;2022-08-19T09:00:47;26.50;99.90
52869;DHT22;39100;53.480;6.158;2022-08-19T09:03:22;26.70;99.90
52869;DHT22;39100;53.480;6.158;2022-08-19T09:14:35;26.30;99.90
52869;DHT22;39100;53.480;6.158;2022-08-19T09:17:03;26.30;99.90
52869;DHT22;39100;53.480;6.158;2022-08-19T09:19:34;26.20;99.90
52869;DHT22;39100;53.480;6.158;2022-08-19T09:21:59;26.10;99.90
52869;DHT22;39100;53.480;6.158;2022-08-19T09:24:26;26.00;99.90
52869;DHT22;39100;53.480;6.158;2022-08-19T09:26:51;25.90;99.90
52869;DHT22;39100;53.480;6.158;2022-08-19T09:29:17;25.90;99.90
52869;DHT22;39100;53.480;6.158;2022-08-19T09:31:43;25.90;99.90
52869;DHT22;39100;53.480;6.158;2022-08-19T09:34:08;26.00;99.90
52869;DHT22;39100;53.480;6.158;2022-08-19T09:36:34;26.10;99.90
52869;DHT22;39100;53.480;6.158;2022-08-19T09:39:04;26.10;99.90
52869;DHT22;39100;53.480;6.158;2022-08-19T09:41:31;26.00;99.90
52869;DHT22;39100;53.480;6.158;2022-08-19T09:43:57;26.10;99.90
52869;DHT22;39100;53.480;6.158;2022-08-19T09:46:26;26.20;99.90
52869;DHT22;39100;53.480;6.158;2022-08-19T09:48:52;26.20;99.90
52869;DHT22;39100;53.480;6.158;2022-08-19T09:51:21;26.30;99.90
52869;DHT22;39100;53.480;6.158;2022-08-19T09:53:48;26.40;99.90
52869;DHT22;39100;53.480;6.158;2022-08-19T09:56:19;26.40;99.90
52869;DHT22;39100;53.480;6.158;2022-08-19T09:58:45;26.30;99.90
52869;DHT22;39100;53.480;6.158;2022-08-19T10:01:20;26.40;99.90
52869;DHT22;39100;53.480;6.158;2022-08-19T10:03:49;26.50;99.90
52869;DHT22;39100;53.480;6.158;2022-08-19T10:06:15;26.50;99.90
52869;DHT22;39100;53.480;6.158;2022-08-19T10:08:41;26.60;99.90
52869;DHT22;39100;53.480;6.158;2022-08-19T10:11:08;26.60;99.90
52869;DHT22;39100;53.480;6.158;2022-08-19T10:13:34;26.80;99.90
52869;DHT22;39100;53.480;6.158;2022-08-19T10:16:10;26.90;99.90
52869;DHT22;39100;53.480;6.158;2022-08-19T10:18:38;26.80;99.90
52869;DHT22;39100;53.480;6.158;2022-08-19T10:21:17;26.80;99.90
52869;DHT22;39100;53.480;6.158;2022-08-19T10:23:46;26.80;99.90
52869;DHT22;39100;53.480;6.158;2022-08-19T10:26:21;27.10;99.90
52869;DHT22;39100;53.480;6.158;2022-08-19T10:28:48;27.30;99.90
52869;DHT22;39100;53.480;6.158;2022-08-19T10:31:20;27.40;99.90
52869;DHT22;39100;53.480;6.158;2022-08-19T10:33:47;27.30;99.90
52869;DHT22;39100;53.480;6.158;2022-08-19T10:36:21;27.10;99.90
52869;DHT22;39100;53.480;6.158;2022-08-19T10:38:50;26.90;99.90
52869;DHT22;39100;53.480;6.158;2022-08-19T10:41:17;26.60;99.90
52869;DHT22;39100;53.480;6.158;2022-08-19T10:43:43;26.40;99.90
52869;DHT22;39100;53.480;6.158;2022-08-19T10:46:12;26.10;99.90
52869;DHT22;39100;53.480;6.158;2022-08-19T10:48:38;25.80;99.90
52869;DHT22;39100;53.480;6.158;2022-08-19T10:51:04;25.60;99.90
52869;DHT22;39100;53.480;6.158;2022-08-19T10:53:49;25.40;99.90
52869;DHT22;39100;53.480;6.158;2022-08-19T10:56:15;25.20;99.90
52869;DHT22;39100;53.480;6.158;2022-08-19T10:58:59;25.00;99.90
52869;DHT22;39100;53.480;6.158;2022-08-19T11:01:26;24.90;99.90
52869;DHT22;39100;53.480;6.158;2022-08-19T11:03:52;24.70;99.90
52869;DHT22;39100;53.480;6.158;2022-08-19T11:06:18;24.60;99.90
52869;DHT22;39100;53.480;6.158;2022-08-19T11:08:45;24.70;99.90
52869;DHT22;39100;53.480;6.158;2022-08-19T11:11:11;24.70;99.90
52869;DHT22;39100;53.480;6.158;2022-08-19T11:13:39;24.70;99.90
52869;DHT22;39100;53.480;6.158;2022-08-19T11:16:17;24.80;99.90
52869;DHT22;39100;53.480;6.158;2022-08-19T11:18:51;25.10;99.90
52869;DHT22;39100;53.480;6.158;2022-08-19T11:21:41;25.10;99.90
52869;DHT22;39100;53.480;6.158;2022-08-19T11:24:14;25.00;99.90
52869;DHT22;39100;53.480;6.158;2022-08-19T11:26:42;24.90;99.90
52869;DHT22;39100;53.480;6.158;2022-08-19T11:29:09;24.80;99.90
52869;DHT22;39100;53.480;6.158;2022-08-19T11:31:37;24.70;99.90
52869;DHT22;39100;53.480;6.158;2022-08-19T11:34:06;24.60;99.90
52869;DHT22;39100;53.480;6.158;2022-08-19T11:36:33;24.50;99.90
52869;DHT22;39100;53.480;6.158;2022-08-19T11:38:59;24.50;99.90
52869;DHT22;39100;53.480;6.158;2022-08-19T11:41:25;24.40;99.90
52869;DHT22;39100;53.480;6.158;2022-08-19T11:43:52;24.30;99.90
52869;DHT22;39100;53.480;6.158;2022-08-19T11:46:21;24.20;99.90
52869;DHT22;39100;53.480;6.158;2022-08-19T11:48:48;24.20;99.90
52869;DHT22;39100;53.480;6.158;2022-08-19T11:51:17;24.00;99.90
52869;DHT22;39100;53.480;6.158;2022-08-19T11:53:44;23.90;99.90
52869;DHT22;39100;53.480;6.158;2022-08-19T11:56:10;23.90;99.90
52869;DHT22;39100;53.480;6.158;2022-08-19T11:58:36;23.70;99.90
52869;DHT22;39100;53.480;6.158;2022-08-19T12:01:06;23.60;99.90
52869;DHT22;39100;53.480;6.158;2022-08-19T12:03:32;23.60;99.90
52869;DHT22;39100;53.480;6.158;2022-08-19T12:06:02;23.60;99.90
52869;DHT22;39100;53.480;6.158;2022-08-19T12:08:28;23.60;99.90
52869;DHT22;39100;53.480;6.158;2022-08-19T12:10:54;23.60;99.90
52869;DHT22;39100;53.480;6.158;2022-08-19T12:13:19;23.60;99.90
52869;DHT22;39100;53.480;6.158;2022-08-19T12:15:46;23.70;99.90
52869;DHT22;39100;53.480;6.158;2022-08-19T12:18:12;23.70;99.90
52869;DHT22;39100;53.480;6.158;2022-08-19T12:20:40;23.70;99.90
52869;DHT22;39100;53.480;6.158;2022-08-19T12:23:07;23.80;99.90
52869;DHT22;39100;53.480;6.158;2022-08-19T12:25:35;23.90;99.90
52869;DHT22;39100;53.480;6.158;2022-08-19T12:28:01;24.00;99.90
52869;DHT22;39100;53.480;6.158;2022-08-19T12:30:27;24.00;99.90
52869;DHT22;39100;53.480;6.158;2022-08-19T12:32:53;24.10;99.90
52869;DHT22;39100;53.480;6.158;2022-08-19T12:35:19;24.10;99.90
52869;DHT22;39100;53.480;6.158;2022-08-19T12:37:48;24.20;99.90
52869;DHT22;39100;53.480;6.158;2022-08-19T12:40:15;24.30;99.90
52869;DHT22;39100;53.480;6.158;2022-08-19T12:42:42;24.70;99.90
52869;DHT22;39100;53.480;6.158;2022-08-19T12:45:12;25.50;99.90
52869;DHT22;39100;53.480;6.158;2022-08-19T12:47:39;26.50;99.90
52869;DHT22;39100;53.480;6.158;2022-08-19T12:50:05;27.50;99.90
52869;DHT22;39100;53.480;6.158;2022-08-19T12:52:34;28.30;99.90
52869;DHT22;39100;53.480;6.158;2022-08-19T12:55:04;29.30;99.90
52869;DHT22;39100;53.480;6.158;2022-08-19T12:57:30;29.80;99.90
52869;DHT22;39100;53.480;6.158;2022-08-19T12:59:58;30.10;99.90
52869;DHT22;39100;53.480;6.158;2022-08-19T13:02:24;30.60;99.90
52869;DHT22;39100;53.480;6.158;2022-08-19T13:04:50;30.60;99.90
52869;DHT22;39100;53.480;6.158;2022-08-19T13:07:15;30.00;99.90
52869;DHT22;39100;53.480;6.158;2022-08-19T13:09:41;29.60;99.90
52869;DHT22;39100;53.480;6.158;2022-08-19T13:12:08;29.80;99.90
52869;DHT22;39100;53.480;6.158;2022-08-19T13:14:38;29.70;99.90
52869;DHT22;39100;53.480;6.158;2022-08-19T13:17:05;30.10;99.90
52869;DHT22;39100;53.480;6.158;2022-08-19T13:19:31;30.50;99.90
52869;DHT22;39100;53.480;6.158;2022-08-19T13:21:57;30.60;99.90
52869;DHT22;39100;53.480;6.158;2022-08-19T13:24:23;30.40;99.90
52869;DHT22;39100;53.480;6.158;2022-08-19T13:26:48;30.10;99.90
52869;DHT22;39100;53.480;6.158;2022-08-19T13:29:14;29.80;99.90
52869;DHT22;39100;53.480;6.158;2022-08-19T13:31:58;29.90;99.90
52869;DHT22;39100;53.480;6.158;2022-08-19T13:34:43;29.70;99.90
52869;DHT22;39100;53.480;6.158;2022-08-19T13:37:08;29.50;99.90
52869;DHT22;39100;53.480;6.158;2022-08-19T13:39:35;29.50;99.90
52869;DHT22;39100;53.480;6.158;2022-08-19T13:42:01;29.30;99.90
52869;DHT22;39100;53.480;6.158;2022-08-19T13:44:28;29.20;99.90
52869;DHT22;39100;53.480;6.158;2022-08-19T13:47:01;29.10;99.90
52869;DHT22;39100;53.480;6.158;2022-08-19T13:49:30;28.90;99.90
52869;DHT22;39100;53.480;6.158;2022-08-19T13:51:57;28.70;99.90
52869;DHT22;39100;53.480;6.158;2022-08-19T13:54:22;28.60;99.90
52869;DHT22;39100;53.480;6.158;2022-08-19T13:56:48;28.60;99.90
52869;DHT22;39100;53.480;6.158;2022-08-19T13:59:14;28.30;99.90
52869;DHT22;39100;53.480;6.158;2022-08-19T14:01:40;28.40;99.90
52869;DHT22;39100;53.480;6.158;2022-08-19T14:04:06;28.40;99.90
52869;DHT22;39100;53.480;6.158;2022-08-19T14:06:32;28.30;99.90
52869;DHT22;39100;53.480;6.158;2022-08-19T14:08:58;28.50;99.90
52869;DHT22;39100;53.480;6.158;2022-08-19T14:11:24;28.20;99.90
52869;DHT22;39100;53.480;6.158;2022-08-19T14:13:50;28.20;99.90
52869;DHT22;39100;53.480;6.158;2022-08-19T14:16:16;28.30;99.90
52869;DHT22;39100;53.480;6.158;2022-08-19T14:18:42;28.10;99.90
52869;DHT22;39100;53.480;6.158;2022-08-19T14:21:15;27.90;99.90
52869;DHT22;39100;53.480;6.158;2022-08-19T14:23:41;27.70;99.90
52869;DHT22;39100;53.480;6.158;2022-08-19T14:26:11;27.60;99.90
52869;DHT22;39100;53.480;6.158;2022-08-19T14:28:38;27.70;99.90
52869;DHT22;39100;53.480;6.158;2022-08-19T14:31:06;27.50;99.90
52869;DHT22;39100;53.480;6.158;2022-08-19T14:33:31;27.50;99.90
52869;DHT22;39100;53.480;6.158;2022-08-19T14:35:57;27.50;99.90
52869;DHT22;39100;53.480;6.158;2022-08-19T14:38:23;27.30;99.90
52869;DHT22;39100;53.480;6.158;2022-08-19T14:40:49;27.50;99.90
52869;DHT22;39100;53.480;6.158;2022-08-19T14:43:14;27.60;99.90
52869;DHT22;39100;53.480;6.158;2022-08-19T14:45:40;27.70;99.90
52869;DHT22;39100;53.480;6.158;2022-08-19T14:48:07;27.60;99.90
52869;DHT22;39100;53.480;6.158;2022-08-19T14:50:34;27.30;99.90
52869;DHT22;39100;53.480;6.158;2022-08-19T14:53:03;27.00;99.90
52869;DHT22;39100;53.480;6.158;2022-08-19T14:55:30;26.70;99.90
52869;DHT22;39100;53.480;6.158;2022-08-19T14:57:55;26.50;99.90
52869;DHT22;39100;53.480;6.158;2022-08-19T15:00:22;26.30;99.90
52869;DHT22;39100;53.480;6.158;2022-08-19T15:02:49;26.30;99.90
52869;DHT22;39100;53.480;6.158;2022-08-19T15:05:14;26.40;99.90
52869;DHT22;39100;53.480;6.158;2022-08-19T15:07:43;26.40;99.90
52869;DHT22;39100;53.480;6.158;2022-08-19T15:10:10;26.50;99.90
52869;DHT22;39100;53.480;6.158;2022-08-19T15:12:37;26.40;99.90
52869;DHT22;39100;53.480;6.158;2022-08-19T15:15:06;26.40;99.90
52869;DHT22;39100;53.480;6.158;2022-08-19T15:17:32;26.40;99.90
52869;DHT22;39100;53.480;6.158;2022-08-19T15:19:58;26.40;99.90
52869;DHT22;39100;53.480;6.158;2022-08-19T15:22:23;26.50;99.90
52869;DHT22;39100;53.480;6.158;2022-08-19T15:24:49;26.40;99.90
52869;DHT22;39100;53.480;6.158;2022-08-19T15:27:15;26.40;99.90
52869;DHT22;39100;53.480;6.158;2022-08-19T15:29:40;26.40;99.90
52869;DHT22;39100;53.480;6.158;2022-08-19T15:32:07;26.40;99.90
52869;DHT22;39100;53.480;6.158;2022-08-19T15:34:33;26.30;99.90
52869;DHT22;39100;53.480;6.158;2022-08-19T15:37:00;26.30;99.90
52869;DHT22;39100;53.480;6.158;2022-08-19T15:39:25;26.00;99.90
52869;DHT22;39100;53.480;6.158;2022-08-19T15:41:51;25.90;99.90
52869;DHT22;39100;53.480;6.158;2022-08-19T15:44:18;25.90;99.90
52869;DHT22;39100;53.480;6.158;2022-08-19T15:46:47;25.80;99.90